sensor_id;sensor_type;location;lat;lon;timestamp;pressure;altitude;pressure_sealevel;temperature;humidity
66762;BME280;53672;48.176;16.338;2023-07-31T00:00:05;99131.09;;;19.00;58.62
66762;BME280;53672;48.176;16.338;2023-07-31T00:05:06;99122.19;;;18.87;60.36
66762;BME280;53672;48.176;16.338;2023-07-31T00:10:07;99128.91;;;18.74;60.83
66762;BME280;53672;48.176;16.338;2023-07-31T00:15:10;99123.78;;;18.54;61.74
66762;BME280;53672;48.176;16.338;2023-07-31T00:20:11;99124.78;;;18.37;62.33
66762;BME280;53672;48.176;16.338;2023-07-31T00:25:11;99139.41;;;18.21;62.57
66762;BME280;53672;48.176;16.338;2023-07-31T00:30:13;99148.88;;;18.08;62.42
66762;BME280;53672;48.176;16.338;2023-07-31T00:35:14;99140.19;;;17.93;62.41
66762;BME280;53672;48.176;16.338;2023-07-31T00:40:14;99140.28;;;17.86;62.75
66762;BME280;53672;48.176;16.338;2023-07-31T00:45:16;99137.91;;;17.78;63.50
66762;BME280;53672;48.176;16.338;2023-07-31T00:50:17;99147.19;;;17.72;63.05
66762;BME280;53672;48.176;16.338;2023-07-31T00:55:18;99147.91;;;17.68;62.64
66762;BME280;53672;48.176;16.338;2023-07-31T01:00:20;99146.47;;;17.65;63.00
66762;BME280;53672;48.176;16.338;2023-07-31T01:05:25;99136.56;;;17.58;62.64
66762;BME280;53672;48.176;16.338;2023-07-31T01:10:32;99132.19;;;17.50;62.41
66762;BME280;53672;48.176;16.338;2023-07-31T01:15:36;99142.09;;;17.46;62.66
66762;BME280;53672;48.176;16.338;2023-07-31T01:20:37;99132.06;;;17.45;62.96
66762;BME280;53672;48.176;16.338;2023-07-31T01:25:50;99125.28;;;17.41;63.10
66762;BME280;53672;48.176;16.338;2023-07-31T01:30:54;99136.38;;;17.41;63.07
66762;BME280;53672;48.176;16.338;2023-07-31T01:35:56;99142.91;;;17.35;63.33
66762;BME280;53672;48.176;16.338;2023-07-31T01:40:58;99132.41;;;17.37;63.80
66762;BME280;53672;48.176;16.338;2023-07-31T01:45:58;99136.50;;;17.34;63.94
66762;BME280;53672;48.176;16.338;2023-07-31T01:51:00;99134.44;;;17.30;63.26
66762;BME280;53672;48.176;16.338;2023-07-31T01:56:02;99141.69;;;17.31;63.44
66762;BME280;53672;48.176;16.338;2023-07-31T02:01:02;99143.00;;;17.28;63.66
66762;BME280;53672;48.176;16.338;2023-07-31T02:06:03;99140.84;;;17.30;64.29
66762;BME280;53672;48.176;16.338;2023-07-31T02:11:05;99152.03;;;17.24;64.62
66762;BME280;53672;48.176;16.338;2023-07-31T02:16:05;99158.53;;;17.18;65.42
66762;BME280;53672;48.176;16.338;2023-07-31T02:21:06;99154.78;;;17.12;66.04
66762;BME280;53672;48.176;16.338;2023-07-31T02:26:07;99166.81;;;17.06;66.17
66762;BME280;53672;48.176;16.338;2023-07-31T02:31:08;99162.13;;;17.07;65.70
66762;BME280;53672;48.176;16.338;2023-07-31T02:36:08;99166.44;;;17.03;64.75
66762;BME280;53672;48.176;16.338;2023-07-31T02:41:10;99170.19;;;17.08;64.80
66762;BME280;53672;48.176;16.338;2023-07-31T02:46:11;99165.50;;;17.09;64.78
66762;BME280;53672;48.176;16.338;2023-07-31T02:51:11;99160.44;;;17.06;64.85
66762;BME280;53672;48.176;16.338;2023-07-31T02:56:13;99170.19;;;17.08;64.92
66762;BME280;53672;48.176;16.338;2023-07-31T03:01:14;99170.44;;;17.07;65.39
66762;BME280;53672;48.176;16.338;2023-07-31T03:06:14;99172.59;;;17.05;65.28
66762;BME280;53672;48.176;16.338;2023-07-31T03:11:16;99179.00;;;17.05;65.53
66762;BME280;53672;48.176;16.338;2023-07-31T03:16:16;99180.78;;;17.00;65.57
66762;BME280;53672;48.176;16.338;2023-07-31T03:21:17;99190.91;;;16.94;65.93
66762;BME280;53672;48.176;16.338;2023-07-31T03:26:19;99176.03;;;16.89;66.34
66762;BME280;53672;48.176;16.338;2023-07-31T03:31:19;99191.81;;;16.88;67.02
66762;BME280;53672;48.176;16.338;2023-07-31T03:36:19;99185.31;;;16.83;67.49
66762;BME280;53672;48.176;16.338;2023-07-31T03:41:21;99190.69;;;16.78;67.47
66762;BME280;53672;48.176;16.338;2023-07-31T03:46:22;99197.56;;;16.75;68.64
66762;BME280;53672;48.176;16.338;2023-07-31T03:51:23;99201.19;;;16.76;69.17
66762;BME280;53672;48.176;16.338;2023-07-31T03:56:25;99204.81;;;16.76;69.47
66762;BME280;53672;48.176;16.338;2023-07-31T04:01:25;99203.63;;;16.84;69.17
66762;BME280;53672;48.176;16.338;2023-07-31T04:06:26;99200.13;;;16.88;70.04
66762;BME280;53672;48.176;16.338;2023-07-31T04:11:28;99201.03;;;17.00;69.50
66762;BME280;53672;48.176;16.338;2023-07-31T04:16:28;99199.63;;;17.09;69.39
66762;BME280;53672;48.176;16.338;2023-07-31T04:21:29;99194.97;;;17.21;69.32
66762;BME280;53672;48.176;16.338;2023-07-31T04:26:30;99181.75;;;17.35;68.99
66762;BME280;53672;48.176;16.338;2023-07-31T04:31:31;99176.09;;;17.42;69.11
66762;BME280;53672;48.176;16.338;2023-07-31T04:36:32;99182.88;;;17.46;68.46
66762;BME280;53672;48.176;16.338;2023-07-31T04:41:34;99185.66;;;17.57;67.61
66762;BME280;53672;48.176;16.338;2023-07-31T04:46:35;99194.75;;;17.76;66.66
66762;BME280;53672;48.176;16.338;2023-07-31T04:51:35;99190.78;;;17.83;66.03
66762;BME280;53672;48.176;16.338;2023-07-31T04:56:37;99205.41;;;17.90;65.37
66762;BME280;53672;48.176;16.338;2023-07-31T05:01:37;99202.84;;;18.00;65.12
66762;BME280;53672;48.176;16.338;2023-07-31T05:06:38;99199.34;;;18.17;64.62
66762;BME280;53672;48.176;16.338;2023-07-31T05:11:40;99205.03;;;18.45;63.67
66762;BME280;53672;48.176;16.338;2023-07-31T05:16:40;99211.50;;;18.62;62.84
66762;BME280;53672;48.176;16.338;2023-07-31T05:21:40;99219.78;;;18.85;61.84
66762;BME280;53672;48.176;16.338;2023-07-31T05:26:42;99215.72;;;19.04;61.92
66762;BME280;53672;48.176;16.338;2023-07-31T05:31:43;99217.38;;;18.89;60.83
66762;BME280;53672;48.176;16.338;2023-07-31T05:36:43;99222.38;;;19.03;59.32
66762;BME280;53672;48.176;16.338;2023-07-31T05:41:45;99221.50;;;19.42;57.88
66762;BME280;53672;48.176;16.338;2023-07-31T05:46:46;99225.72;;;19.90;58.52
66762;BME280;53672;48.176;16.338;2023-07-31T05:51:46;99221.56;;;20.26;54.46
66762;BME280;53672;48.176;16.338;2023-07-31T05:56:48;99227.13;;;20.64;53.25
66762;BME280;53672;48.176;16.338;2023-07-31T06:01:49;99227.38;;;21.01;54.22
66762;BME280;53672;48.176;16.338;2023-07-31T06:06:49;99225.13;;;21.24;51.39
66762;BME280;53672;48.176;16.338;2023-07-31T06:11:51;99217.81;;;21.45;50.99
66762;BME280;53672;48.176;16.338;2023-07-31T06:16:52;99204.69;;;21.72;50.13
66762;BME280;53672;48.176;16.338;2023-07-31T06:21:52;99225.50;;;21.86;48.57
66762;BME280;53672;48.176;16.338;2023-07-31T06:26:54;99219.31;;;21.79;48.39
66762;BME280;53672;48.176;16.338;2023-07-31T06:31:55;99216.41;;;21.69;48.07
66762;BME280;53672;48.176;16.338;2023-07-31T06:36:55;99215.81;;;21.67;48.43
66762;BME280;53672;48.176;16.338;2023-07-31T06:41:57;99216.97;;;21.66;47.76
66762;BME280;53672;48.176;16.338;2023-07-31T06:46:58;99213.72;;;21.79;46.34
66762;BME280;53672;48.176;16.338;2023-07-31T06:51:58;99212.81;;;22.05;46.65
66762;BME280;53672;48.176;16.338;2023-07-31T06:57:00;99207.75;;;22.34;44.50
66762;BME280;53672;48.176;16.338;2023-07-31T07:02:00;99212.09;;;22.62;42.56
66762;BME280;53672;48.176;16.338;2023-07-31T07:07:01;99212.84;;;22.99;40.52
66762;BME280;53672;48.176;16.338;2023-07-31T07:12:03;99207.91;;;23.21;39.50
66762;BME280;53672;48.176;16.338;2023-07-31T07:17:04;99215.28;;;23.47;37.51
66762;BME280;53672;48.176;16.338;2023-07-31T07:22:05;99201.28;;;23.63;37.09
66762;BME280;53672;48.176;16.338;2023-07-31T07:27:07;99196.81;;;23.87;37.92
66762;BME280;53672;48.176;16.338;2023-07-31T07:32:08;99199.63;;;23.87;36.40
66762;BME280;53672;48.176;16.338;2023-07-31T07:37:08;99201.34;;;23.93;35.33
66762;BME280;53672;48.176;16.338;2023-07-31T07:42:10;99210.56;;;24.18;35.75
66762;BME280;53672;48.176;16.338;2023-07-31T07:47:10;99206.06;;;24.22;35.74
66762;BME280;53672;48.176;16.338;2023-07-31T07:52:11;99199.63;;;24.22;35.54
66762;BME280;53672;48.176;16.338;2023-07-31T07:57:13;99196.81;;;24.27;36.73
66762;BME280;53672;48.176;16.338;2023-07-31T08:02:13;99186.19;;;23.89;36.24
66762;BME280;53672;48.176;16.338;2023-07-31T08:07:14;99192.00;;;23.47;37.12
66762;BME280;53672;48.176;16.338;2023-07-31T08:12:16;99195.66;;;23.58;36.74
66762;BME280;53672;48.176;16.338;2023-07-31T08:17:16;99191.78;;;24.09;36.82
66762;BME280;53672;48.176;16.338;2023-07-31T08:22:16;99191.19;;;24.37;34.92
66762;BME280;53672;48.176;16.338;2023-07-31T08:27:18;99197.34;;;24.54;35.55
66762;BME280;53672;48.176;16.338;2023-07-31T08:32:19;99193.38;;;24.65;34.59
66762;BME280;53672;48.176;16.338;2023-07-31T08:37:19;99189.88;;;25.04;34.01
66762;BME280;53672;48.176;16.338;2023-07-31T08:42:21;99183.66;;;25.17;33.05
66762;BME280;53672;48.176;16.338;2023-07-31T08:47:22;99186.38;;;25.32;33.36
66762;BME280;53672;48.176;16.338;2023-07-31T08:52:23;99176.56;;;25.68;31.09
66762;BME280;53672;48.176;16.338;2023-07-31T08:57:25;99175.63;;;26.16;31.02
66762;BME280;53672;48.176;16.338;2023-07-31T09:02:30;99176.59;;;26.30;30.53
66762;BME280;53672;48.176;16.338;2023-07-31T09:07:33;99160.97;;;26.19;29.69
66762;BME280;53672;48.176;16.338;2023-07-31T09:12:36;99152.94;;;26.84;29.89
66762;BME280;53672;48.176;16.338;2023-07-31T09:17:37;99168.94;;;26.88;29.71
66762;BME280;53672;48.176;16.338;2023-07-31T09:22:37;99165.34;;;26.83;29.76
66762;BME280;53672;48.176;16.338;2023-07-31T09:27:47;99165.44;;;27.20;29.93
66762;BME280;53672;48.176;16.338;2023-07-31T09:32:50;99161.75;;;27.81;28.79
66762;BME280;53672;48.176;16.338;2023-07-31T09:37:51;99159.75;;;28.13;27.86
66762;BME280;53672;48.176;16.338;2023-07-31T09:42:54;99159.56;;;28.69;26.20
66762;BME280;53672;48.176;16.338;2023-07-31T09:47:56;99150.81;;;29.61;25.37
66762;BME280;53672;48.176;16.338;2023-07-31T09:52:56;99149.66;;;29.62;24.32
66762;BME280;53672;48.176;16.338;2023-07-31T09:57:58;99132.06;;;30.09;24.75
66762;BME280;53672;48.176;16.338;2023-07-31T10:03:00;99133.50;;;30.51;22.58
66762;BME280;53672;48.176;16.338;2023-07-31T10:08:02;99134.31;;;31.64;22.17
66762;BME280;53672;48.176;16.338;2023-07-31T10:13:04;99134.53;;;33.33;20.28
66762;BME280;53672;48.176;16.338;2023-07-31T10:18:06;99109.94;;;34.43;19.98
66762;BME280;53672;48.176;16.338;2023-07-31T10:23:06;99108.31;;;34.67;18.80
66762;BME280;53672;48.176;16.338;2023-07-31T10:28:08;99096.94;;;35.15;19.65
66762;BME280;53672;48.176;16.338;2023-07-31T10:33:10;99095.00;;;35.31;19.81
66762;BME280;53672;48.176;16.338;2023-07-31T10:38:12;99083.59;;;35.55;19.08
66762;BME280;53672;48.176;16.338;2023-07-31T10:43:25;99087.97;;;35.93;17.10
66762;BME280;53672;48.176;16.338;2023-07-31T10:48:33;99071.81;;;36.56;16.79
66762;BME280;53672;48.176;16.338;2023-07-31T10:53:34;99057.03;;;36.54;16.47
66762;BME280;53672;48.176;16.338;2023-07-31T10:58:37;99050.44;;;36.22;16.60
66762;BME280;53672;48.176;16.338;2023-07-31T11:03:42;99047.25;;;36.39;16.79
66762;BME280;53672;48.176;16.338;2023-07-31T11:08:44;99037.44;;;36.71;17.06
66762;BME280;53672;48.176;16.338;2023-07-31T11:13:47;99033.25;;;37.50;16.75
66762;BME280;53672;48.176;16.338;2023-07-31T11:18:49;99020.94;;;38.26;16.35
66762;BME280;53672;48.176;16.338;2023-07-31T11:23:51;99019.81;;;38.12;14.71
66762;BME280;53672;48.176;16.338;2023-07-31T11:28:53;99007.44;;;38.08;14.90
66762;BME280;53672;48.176;16.338;2023-07-31T11:34:04;99017.88;;;39.40;14.32
66762;BME280;53672;48.176;16.338;2023-07-31T11:39:05;98987.72;;;40.23;11.33
66762;BME280;53672;48.176;16.338;2023-07-31T11:44:07;99002.56;;;39.58;12.23
66762;BME280;53672;48.176;16.338;2023-07-31T11:49:07;99003.81;;;39.31;15.56
66762;BME280;53672;48.176;16.338;2023-07-31T11:54:08;98995.06;;;39.83;12.46
66762;BME280;53672;48.176;16.338;2023-07-31T11:59:11;98982.47;;;39.32;13.70
66762;BME280;53672;48.176;16.338;2023-07-31T12:04:11;98982.97;;;39.67;11.99
66762;BME280;53672;48.176;16.338;2023-07-31T12:09:14;98959.22;;;39.11;11.54
66762;BME280;53672;48.176;16.338;2023-07-31T12:14:24;98954.13;;;38.52;12.30
66762;BME280;53672;48.176;16.338;2023-07-31T12:19:25;98949.13;;;39.24;13.15
66762;BME280;53672;48.176;16.338;2023-07-31T12:24:26;98933.47;;;38.92;14.78
66762;BME280;53672;48.176;16.338;2023-07-31T12:29:35;98927.44;;;39.93;14.08
66762;BME280;53672;48.176;16.338;2023-07-31T12:34:42;98919.88;;;39.81;14.35
66762;BME280;53672;48.176;16.338;2023-07-31T12:39:43;98908.94;;;39.94;13.47
66762;BME280;53672;48.176;16.338;2023-07-31T12:44:45;98903.38;;;40.63;12.91
66762;BME280;53672;48.176;16.338;2023-07-31T12:49:45;98893.91;;;40.15;11.36
66762;BME280;53672;48.176;16.338;2023-07-31T12:54:45;98891.53;;;39.43;12.30
66762;BME280;53672;48.176;16.338;2023-07-31T12:59:47;98882.84;;;39.76;13.86
66762;BME280;53672;48.176;16.338;2023-07-31T13:04:49;98881.56;;;39.70;13.25
66762;BME280;53672;48.176;16.338;2023-07-31T13:09:49;98865.69;;;39.43;13.98
66762;BME280;53672;48.176;16.338;2023-07-31T13:14:51;98845.53;;;38.54;15.19
66762;BME280;53672;48.176;16.338;2023-07-31T13:19:52;98849.06;;;37.95;13.61
66762;BME280;53672;48.176;16.338;2023-07-31T13:24:52;98846.53;;;36.53;13.63
66762;BME280;53672;48.176;16.338;2023-07-31T13:29:54;98840.69;;;35.67;15.65
66762;BME280;53672;48.176;16.338;2023-07-31T13:34:54;98829.78;;;34.46;17.44
66762;BME280;53672;48.176;16.338;2023-07-31T13:39:55;98816.03;;;34.00;16.87
66762;BME280;53672;48.176;16.338;2023-07-31T13:44:57;98817.50;;;33.70;17.84
66762;BME280;53672;48.176;16.338;2023-07-31T13:49:58;98803.50;;;32.87;17.75
66762;BME280;53672;48.176;16.338;2023-07-31T13:54:58;98803.78;;;32.12;18.21
66762;BME280;53672;48.176;16.338;2023-07-31T14:00:00;98794.28;;;32.28;19.57
66762;BME280;53672;48.176;16.338;2023-07-31T14:05:01;98793.78;;;32.06;19.22
66762;BME280;53672;48.176;16.338;2023-07-31T14:10:01;98792.22;;;31.88;20.26
66762;BME280;53672;48.176;16.338;2023-07-31T14:15:04;98784.81;;;31.28;19.17
66762;BME280;53672;48.176;16.338;2023-07-31T14:20:06;98781.72;;;30.87;20.69
66762;BME280;53672;48.176;16.338;2023-07-31T14:25:07;98767.75;;;30.56;21.74
66762;BME280;53672;48.176;16.338;2023-07-31T14:30:09;98763.44;;;30.07;21.29
66762;BME280;53672;48.176;16.338;2023-07-31T14:35:10;98759.00;;;29.67;22.09
66762;BME280;53672;48.176;16.338;2023-07-31T14:40:12;98739.88;;;29.81;21.57
66762;BME280;53672;48.176;16.338;2023-07-31T14:45:14;98736.78;;;29.91;21.69
66762;BME280;53672;48.176;16.338;2023-07-31T14:50:14;98733.44;;;29.98;21.96
66762;BME280;53672;48.176;16.338;2023-07-31T14:55:15;98729.25;;;29.78;21.36
66762;BME280;53672;48.176;16.338;2023-07-31T15:00:17;98735.19;;;29.68;22.70
66762;BME280;53672;48.176;16.338;2023-07-31T15:05:17;98723.66;;;29.39;22.70
66762;BME280;53672;48.176;16.338;2023-07-31T15:10:18;98731.03;;;29.18;22.54
66762;BME280;53672;48.176;16.338;2023-07-31T15:15:20;98708.00;;;28.71;24.02
66762;BME280;53672;48.176;16.338;2023-07-31T15:20:20;98708.69;;;28.46;23.58
66762;BME280;53672;48.176;16.338;2023-07-31T15:25:21;98705.38;;;28.22;23.88
66762;BME280;53672;48.176;16.338;2023-07-31T15:30:24;98709.38;;;28.07;24.69
66762;BME280;53672;48.176;16.338;2023-07-31T15:35:24;98701.13;;;27.97;23.55
66762;BME280;53672;48.176;16.338;2023-07-31T15:40:25;98693.78;;;27.88;24.16
66762;BME280;53672;48.176;16.338;2023-07-31T15:45:27;98691.03;;;27.96;24.41
66762;BME280;53672;48.176;16.338;2023-07-31T15:50:27;98692.75;;;28.06;24.38
66762;BME280;53672;48.176;16.338;2023-07-31T15:55:27;98689.22;;;28.00;24.49
66762;BME280;53672;48.176;16.338;2023-07-31T16:00:29;98699.31;;;27.79;25.42
66762;BME280;53672;48.176;16.338;2023-07-31T16:05:30;98687.13;;;27.56;25.89
66762;BME280;53672;48.176;16.338;2023-07-31T16:10:31;98678.81;;;27.38;26.34
66762;BME280;53672;48.176;16.338;2023-07-31T16:15:33;98687.28;;;27.24;26.87
66762;BME280;53672;48.176;16.338;2023-07-31T16:20:33;98681.88;;;27.14;26.68
66762;BME280;53672;48.176;16.338;2023-07-31T16:25:34;98676.47;;;27.04;27.71
66762;BME280;53672;48.176;16.338;2023-07-31T16:30:36;98675.81;;;26.93;28.20
66762;BME280;53672;48.176;16.338;2023-07-31T16:35:37;98671.72;;;26.86;28.20
66762;BME280;53672;48.176;16.338;2023-07-31T16:40:37;98674.03;;;26.84;28.06
66762;BME280;53672;48.176;16.338;2023-07-31T16:45:39;98687.13;;;26.48;29.46
66762;BME280;53672;48.176;16.338;2023-07-31T16:50:40;98669.56;;;26.37;29.20
66762;BME280;53672;48.176;16.338;2023-07-31T16:55:40;98680.41;;;26.11;30.18
66762;BME280;53672;48.176;16.338;2023-07-31T17:00:42;98677.88;;;25.96;30.72
66762;BME280;53672;48.176;16.338;2023-07-31T17:05:42;98679.72;;;25.87;30.79
66762;BME280;53672;48.176;16.338;2023-07-31T17:10:43;98678.19;;;25.57;30.93
66762;BME280;53672;48.176;16.338;2023-07-31T17:15:45;98670.44;;;25.49;31.70
66762;BME280;53672;48.176;16.338;2023-07-31T17:20:45;98677.94;;;25.35;32.52
66762;BME280;53672;48.176;16.338;2023-07-31T17:25:46;98673.25;;;25.31;32.58
66762;BME280;53672;48.176;16.338;2023-07-31T17:30:49;98680.03;;;25.25;33.02
66762;BME280;53672;48.176;16.338;2023-07-31T17:35:49;98679.50;;;25.23;33.47
66762;BME280;53672;48.176;16.338;2023-07-31T17:40:51;98679.44;;;25.04;34.44
66762;BME280;53672;48.176;16.338;2023-07-31T17:45:53;98683.09;;;25.05;34.87
66762;BME280;53672;48.176;16.338;2023-07-31T17:50:54;98682.56;;;25.03;35.28
66762;BME280;53672;48.176;16.338;2023-07-31T17:55:55;98682.75;;;24.87;36.15
66762;BME280;53672;48.176;16.338;2023-07-31T18:00:57;98676.47;;;24.72;37.33
66762;BME280;53672;48.176;16.338;2023-07-31T18:05:57;98674.97;;;24.56;38.64
66762;BME280;53672;48.176;16.338;2023-07-31T18:10:58;98680.66;;;24.51;39.54
66762;BME280;53672;48.176;16.338;2023-07-31T18:16:00;98672.47;;;24.26;40.81
66762;BME280;53672;48.176;16.338;2023-07-31T18:21:01;98676.75;;;24.18;41.63
66762;BME280;53672;48.176;16.338;2023-07-31T18:26:02;98672.69;;;24.00;42.41
66762;BME280;53672;48.176;16.338;2023-07-31T18:31:05;98671.34;;;23.93;43.25
66762;BME280;53672;48.176;16.338;2023-07-31T18:36:06;98666.97;;;23.82;43.94
66762;BME280;53672;48.176;16.338;2023-07-31T18:41:07;98671.50;;;23.73;44.66
66762;BME280;53672;48.176;16.338;2023-07-31T18:46:09;98669.88;;;23.62;45.81
66762;BME280;53672;48.176;16.338;2023-07-31T18:51:10;98665.47;;;23.50;46.45
66762;BME280;53672;48.176;16.338;2023-07-31T18:56:11;98670.81;;;23.52;46.49
66762;BME280;53672;48.176;16.338;2023-07-31T19:01:13;98673.69;;;23.37;47.11
66762;BME280;53672;48.176;16.338;2023-07-31T19:06:13;98678.53;;;23.26;47.78
66762;BME280;53672;48.176;16.338;2023-07-31T19:11:15;98679.19;;;23.08;48.17
66762;BME280;53672;48.176;16.338;2023-07-31T19:16:17;98683.38;;;23.06;48.46
66762;BME280;53672;48.176;16.338;2023-07-31T19:21:18;98682.53;;;22.95;49.04
66762;BME280;53672;48.176;16.338;2023-07-31T19:26:20;98689.59;;;22.88;55.04
66762;BME280;53672;48.176;16.338;2023-07-31T19:31:23;98677.38;;;22.58;52.48
66762;BME280;53672;48.176;16.338;2023-07-31T19:36:23;98679.09;;;22.44;52.11
66762;BME280;53672;48.176;16.338;2023-07-31T19:41:24;98676.03;;;22.36;51.83
66762;BME280;53672;48.176;16.338;2023-07-31T19:46:26;98676.56;;;22.28;51.69
66762;BME280;53672;48.176;16.338;2023-07-31T19:51:27;98672.09;;;22.27;52.50
66762;BME280;53672;48.176;16.338;2023-07-31T19:56:27;98666.53;;;22.16;51.55
66762;BME280;53672;48.176;16.338;2023-07-31T20:01:30;98670.16;;;22.07;52.08
66762;BME280;53672;48.176;16.338;2023-07-31T20:06:31;98669.31;;;22.01;50.29
66762;BME280;53672;48.176;16.338;2023-07-31T20:11:33;98672.69;;;21.93;49.81
66762;BME280;53672;48.176;16.338;2023-07-31T20:16:35;98677.44;;;21.73;48.35
66762;BME280;53672;48.176;16.338;2023-07-31T20:21:36;98676.03;;;21.65;49.52
66762;BME280;53672;48.176;16.338;2023-07-31T20:26:37;98679.91;;;21.59;49.41
66762;BME280;53672;48.176;16.338;2023-07-31T20:31:40;98667.63;;;21.50;49.41
66762;BME280;53672;48.176;16.338;2023-07-31T20:36:41;98662.31;;;21.43;49.87
66762;BME280;53672;48.176;16.338;2023-07-31T20:41:41;98660.31;;;21.29;49.01
66762;BME280;53672;48.176;16.338;2023-07-31T20:46:44;98649.41;;;21.22;48.78
66762;BME280;53672;48.176;16.338;2023-07-31T20:51:45;98644.69;;;21.23;49.18
66762;BME280;53672;48.176;16.338;2023-07-31T20:56:46;98649.97;;;21.24;48.96
66762;BME280;53672;48.176;16.338;2023-07-31T21:01:48;98649.41;;;21.22;49.28
66762;BME280;53672;48.176;16.338;2023-07-31T21:06:49;98641.88;;;21.28;50.48
66762;BME280;53672;48.176;16.338;2023-07-31T21:11:49;98635.16;;;21.24;50.93
66762;BME280;53672;48.176;16.338;2023-07-31T21:16:51;98637.13;;;21.13;51.89
66762;BME280;53672;48.176;16.338;2023-07-31T21:21:51;98616.72;;;21.08;52.92
66762;BME280;53672;48.176;16.338;2023-07-31T21:26:52;98617.81;;;20.97;52.79
66762;BME280;53672;48.176;16.338;2023-07-31T21:31:54;98614.72;;;20.88;55.10
66762;BME280;53672;48.176;16.338;2023-07-31T21:36:54;98613.81;;;20.83;55.66
66762;BME280;53672;48.176;16.338;2023-07-31T21:41:55;98608.78;;;20.74;55.30
66762;BME280;53672;48.176;16.338;2023-07-31T21:46:57;98604.25;;;20.58;55.69
66762;BME280;53672;48.176;16.338;2023-07-31T21:51:58;98596.06;;;20.37;55.23
66762;BME280;53672;48.176;16.338;2023-07-31T21:56:58;98575.69;;;20.26;55.78
66762;BME280;53672;48.176;16.338;2023-07-31T22:02:00;98570.03;;;20.16;55.59
66762;BME280;53672;48.176;16.338;2023-07-31T22:07:01;98574.22;;;20.14;55.51
66762;BME280;53672;48.176;16.338;2023-07-31T22:12:01;98582.84;;;20.12;55.79
66762;BME280;53672;48.176;16.338;2023-07-31T22:17:03;98562.78;;;20.10;56.51
66762;BME280;53672;48.176;16.338;2023-07-31T22:22:04;98571.16;;;20.15;56.66
66762;BME280;53672;48.176;16.338;2023-07-31T22:27:05;98581.63;;;19.98;57.54
66762;BME280;53672;48.176;16.338;2023-07-31T22:32:08;98579.47;;;20.05;57.66
66762;BME280;53672;48.176;16.338;2023-07-31T22:37:08;98560.00;;;20.10;57.76
66762;BME280;53672;48.176;16.338;2023-07-31T22:42:08;98557.22;;;20.10;57.81
66762;BME280;53672;48.176;16.338;2023-07-31T22:47:10;98557.94;;;20.00;58.05
66762;BME280;53672;48.176;16.338;2023-07-31T22:52:11;98545.97;;;20.00;58.22
66762;BME280;53672;48.176;16.338;2023-07-31T22:57:11;98548.75;;;20.00;59.11
66762;BME280;53672;48.176;16.338;2023-07-31T23:02:13;98542.59;;;19.98;59.05
66762;BME280;53672;48.176;16.338;2023-07-31T23:07:13;98539.22;;;19.91;60.18
66762;BME280;53672;48.176;16.338;2023-07-31T23:12:14;98527.84;;;19.92;60.21
66762;BME280;53672;48.176;16.338;2023-07-31T23:17:16;98524.16;;;19.87;60.76
66762;BME280;53672;48.176;16.338;2023-07-31T23:22:16;98526.91;;;19.82;60.29
66762;BME280;53672;48.176;16.338;2023-07-31T23:27:17;98532.94;;;19.64;63.24
66762;BME280;53672;48.176;16.338;2023-07-31T23:32:18;98527.66;;;19.62;63.38
66762;BME280;53672;48.176;16.338;2023-07-31T23:37:19;98517.03;;;19.59;63.36
66762;BME280;53672;48.176;16.338;2023-07-31T23:42:19;98520.13;;;19.63;63.30
66762;BME280;53672;48.176;16.338;2023-07-31T23:47:21;98525.09;;;19.61;63.39
66762;BME280;53672;48.176;16.338;2023-07-31T23:52:22;98517.31;;;19.58;62.75
66762;BME280;53672;48.176;16.338;2023-07-31T23:57:22;98516.75;;;19.56;62.25
